Sheridan, WY

3:50 AM MDT on August 31, 2014 (GMT -0600)
Johnson County | Change Station
CLOSE
Current Station
Airport
Location: Buffalo,
Elevation: 4967 ft
Nearby Weather Stations

Elev 4967 ft 44.38 °N, 106.72 °W | Updated 57 minutes ago

Partly Cloudy
Partly Cloudy
54 °F
Feels Like 54 °F
N
4
Wind Variable Wind from South

Today
High -- | Low -- °F
--% Chance of Precip.
Yesterday
High -- | Low -- °F
Precip. -- in
6:29 AM 7:46 PM
Waxing Crescent, 29% visible
Pressure 29.72 in
Visibility 10.0 miles
Clouds Few 10000 ft
Dew Point 48 °F
Humidity 80%
Rainfall 0.00 in
Snow Depth Not available.
UV 0 out of 12
Pollen 8.50 out of 12
Air Quality Not available.
Flu Activity Not available.
METAR KBYG 310853Z AUTO 18003KT 10SM FEW100 12/09 A2986 RMK AO2 SLP064 T01220089 58006

More Conditions Fewer Conditions

Pressure 29.72 in
Visibility 10.0 miles
Clouds Few 10000 ft
Dew Point 48 °F
Humidity 80%
Rainfall 0.00 in
Snow Depth Not available.
UV 0 out of 12
Pollen 8.50 out of 12
Air Quality Not available.
Flu Activity Not available.
METAR KBYG 310853Z AUTO 18003KT 10SM FEW100 12/09 A2986 RMK AO2 SLP064 T01220089 58006

More Conditions Fewer Conditions

10-Day Weather Forecast

Almanac

Astronomy

Aug. 31, 2014 Rise Set
Actual Time 6:29 AM MDT 7:46 PM MDT
Civil Twilight 5:58 AM MDT 8:16 PM MDT
Nautical Twilight 5:22 AM MDT 8:52 PM MDT
Astronomical Twilight 4:43 AM MDT 9:31 PM MDT
Moon 12:34 PM MDT 10:47 PM MDT
Length of Visible Light 14h 17m
Length of Day
13h 17m
Tomorrow will be 3m 0s shorter.
Waxing Crescent, 29% of the Moon is Illuminated
Today
Waxing Crescent
Sep 2
First Quarter
Sep 8
Full
Sep 15
Last Quarter
Sep 24
New

Today's Extremes

State Highs State Lows

Community

WunderPhotos

Upload Photos

1,748,834 photos uploaded!

Nearby

Snow Depth

Station Depth Elevation
Sucker Creek 0 in 8880 ft
Shell Creek 0 in 9580 ft
Hansen Sawmill 1 in 8360 ft
Bald Mountain 1 in 9380 ft
Powder River Pass 0 in 9480 ft

Earthquake Activity

City Distance Mag. Time & Date
No recent earthquake activity has been reported nearby.
Minimum magnitude displayed is 2.5.

Coastal Water Temperatures

Place Temperature
No Stations Reporting

Nearby Weather Stations